createdAt,value
2019-05-22T00:00:46.735Z,97320.63
2019-05-22T00:05:51.971Z,97323.23
2019-05-22T00:10:58.289Z,97326.41
2019-05-22T00:16:04.632Z,97320.08
2019-05-22T00:21:10.288Z,97321.59
2019-05-22T00:26:16.970Z,97316.64
2019-05-22T00:31:21.622Z,97305.25
2019-05-22T00:36:26.671Z,97305.22
2019-05-22T00:41:32.957Z,97314.09
2019-05-22T00:46:39.235Z,97313.32
2019-05-22T00:51:47.362Z,97315.64
2019-05-22T00:56:56.497Z,97310.95
2019-05-22T01:02:05.446Z,97300.23
2019-05-22T01:07:18.792Z,97306.97
2019-05-22T01:12:44.018Z,97305.10
2019-05-22T01:17:50.186Z,97320.44
2019-05-22T01:22:59.440Z,97325.23
2019-05-22T01:28:06.124Z,97326.77
2019-05-22T01:33:12.509Z,97329.44
2019-05-22T01:38:17.360Z,97331.20
2019-05-22T01:43:22.309Z,97328.73
2019-05-22T01:48:33.703Z,97330.31
2019-05-22T01:53:38.662Z,97335.58
2019-05-22T01:58:44.839Z,97332.81
2019-05-22T02:03:50.981Z,97339.87
2019-05-22T02:09:06.309Z,97350.61
2019-05-22T02:14:14.525Z,97341.37
2019-05-22T02:19:20.898Z,97337.34
2019-05-22T02:24:26.667Z,97347.98
2019-05-22T02:29:32.124Z,97342.46
2019-05-22T02:34:37.592Z,97339.42
2019-05-22T02:39:43.359Z,97341.02
2019-05-22T02:44:48.990Z,97347.48
2019-05-22T02:49:53.971Z,97347.05
2019-05-22T02:54:59.021Z,97347.20
2019-05-22T03:00:04.992Z,97349.23
2019-05-22T03:05:10.519Z,97335.97
2019-05-22T03:10:16.168Z,97342.16
2019-05-22T03:15:23.630Z,97346.16
2019-05-22T03:20:29.178Z,97346.07
2019-05-22T03:25:33.940Z,97344.29
2019-05-22T03:30:41.292Z,97343.80
2019-05-22T03:35:51.762Z,97346.46
2019-05-22T03:40:57.379Z,97348.52
2019-05-22T03:46:05.406Z,97348.42
2019-05-22T03:51:12.812Z,97352.87
2019-05-22T03:56:17.651Z,97357.05
2019-05-22T04:01:23.611Z,97366.19
2019-05-22T04:06:28.979Z,97360.88
2019-05-22T04:11:39.055Z,97357.86
2019-05-22T04:16:45.092Z,97359.81
2019-05-22T04:21:50.747Z,97357.70
2019-05-22T04:26:55.751Z,97375.41
2019-05-22T04:32:02.016Z,97372.08
2019-05-22T04:37:09.945Z,97380.65
2019-05-22T04:42:15.093Z,97380.83
2019-05-22T04:47:19.833Z,97372.95
2019-05-22T04:52:24.882Z,97361.64
2019-05-22T04:57:31.479Z,97358.36
2019-05-22T05:02:36.633Z,97364.84
2019-05-22T05:07:42.082Z,97360.44
2019-05-22T05:12:47.247Z,97362.27
2019-05-22T05:17:52.082Z,97360.91
2019-05-22T05:22:56.966Z,97348.30
2019-05-22T05:28:03.175Z,97338.52
2019-05-22T05:33:07.951Z,97342.34
2019-05-22T05:38:14.537Z,97328.36
2019-05-22T05:43:19.901Z,97330.91
2019-05-22T05:48:24.641Z,97336.14
2019-05-22T05:53:29.911Z,97339.06
2019-05-22T05:58:34.904Z,97339.69
2019-05-22T06:03:41.943Z,97346.67
2019-05-22T06:08:46.482Z,97347.25
2019-05-22T06:13:51.116Z,97350.11
2019-05-22T06:18:57.164Z,97356.94
2019-05-22T06:24:14.431Z,97356.70
2019-05-22T06:29:20.713Z,97345.36
2019-05-22T06:34:25.560Z,97356.48
2019-05-22T06:39:30.506Z,97354.48
2019-05-22T06:44:36.581Z,97361.45
2019-05-22T06:49:41.584Z,97362.33
2019-05-22T06:54:46.276Z,97367.08
2019-05-22T07:00:09.350Z,97358.10
2019-05-22T07:04:57.405Z,97359.60
2019-05-22T07:10:02.474Z,97352.83
2019-05-22T07:15:21.023Z,97342.17
2019-05-22T07:20:26.483Z,97341.11
2019-05-22T07:25:31.431Z,97335.86
2019-05-22T07:30:36.483Z,97338.73
2019-05-22T07:35:56.731Z,97328.64
2019-05-22T07:40:50.653Z,97320.38
2019-05-22T07:45:55.815Z,97320.83
2019-05-22T07:51:02.537Z,97317.34
2019-05-22T07:56:10.312Z,97317.48
2019-05-22T08:01:16.047Z,97314.99
2019-05-22T08:06:20.854Z,97312.61
2019-05-22T08:11:26.239Z,97315.91
2019-05-22T08:16:31.158Z,97308.53
2019-05-22T08:21:36.107Z,97302.81
2019-05-22T08:26:53.981Z,97303.11
2019-05-22T08:31:47.643Z,97298.25
2019-05-22T08:36:52.499Z,97287.33
2019-05-22T08:41:58.267Z,97293.13
2019-05-22T08:47:03.000Z,97298.52
2019-05-22T08:52:22.595Z,97297.16
2019-05-22T08:57:16.180Z,97299.45
2019-05-22T09:02:21.031Z,97290.81
2019-05-22T09:07:25.769Z,97294.91
2019-05-22T09:12:31.228Z,97280.39
2019-05-22T09:17:36.801Z,97276.86
2019-05-22T09:22:41.767Z,97286.20
2019-05-22T09:27:47.893Z,97282.50
2019-05-22T09:33:00.686Z,97274.42
2019-05-22T09:38:05.598Z,97271.70
2019-05-22T09:43:10.827Z,97271.33
2019-05-22T09:48:16.281Z,97267.48
2019-05-22T09:53:21.723Z,97260.20
2019-05-22T09:58:26.726Z,97255.27
2019-05-22T10:03:31.356Z,97256.47
2019-05-22T10:08:37.528Z,97251.42
2019-05-22T10:13:43.674Z,97263.19
2019-05-22T10:18:53.436Z,97259.16
2019-05-22T10:23:58.791Z,97256.76
2019-05-22T10:29:18.180Z,97252.95
2019-05-22T10:34:28.573Z,97241.28
2019-05-22T10:39:34.482Z,97230.58
2019-05-22T10:44:40.732Z,97237.41
2019-05-22T10:49:46.814Z,97241.62
2019-05-22T10:54:51.577Z,97242.28
2019-05-22T10:59:56.627Z,97238.88
2019-05-22T11:05:01.717Z,97232.22
2019-05-22T11:10:07.452Z,97228.14
2019-05-22T11:15:12.184Z,97227.53
2019-05-22T11:20:17.149Z,97227.37
2019-05-22T11:25:22.620Z,97225.70
2019-05-22T11:30:27.995Z,97221.81
2019-05-22T11:35:34.177Z,97216.52
2019-05-22T11:40:39.709Z,97205.20
2019-05-22T11:45:45.320Z,97181.39
2019-05-22T11:50:51.137Z,97181.09
2019-05-22T11:55:56.011Z,97173.58
2019-05-22T12:01:00.935Z,97175.41
2019-05-22T12:06:05.905Z,97181.54
2019-05-22T12:11:12.986Z,97169.67
2019-05-22T12:16:19.978Z,97171.64
2019-05-22T12:21:24.592Z,97161.25
2019-05-22T12:26:29.775Z,97151.06
2019-05-22T12:31:37.439Z,97153.86
2019-05-22T12:36:43.586Z,97158.50
2019-05-22T12:41:48.318Z,97156.75
2019-05-22T12:46:53.869Z,97161.41
2019-05-22T12:51:58.617Z,97149.02
2019-05-22T12:57:05.106Z,97145.97
2019-05-22T13:02:11.686Z,97137.16
2019-05-22T13:07:18.633Z,97134.91
2019-05-22T13:12:23.942Z,97133.38
2019-05-22T13:17:29.050Z,97129.44
2019-05-22T13:22:34.879Z,97132.33
2019-05-22T13:27:39.942Z,97137.11
2019-05-22T13:32:44.655Z,97150.14
2019-05-22T13:37:49.406Z,97142.77
2019-05-22T13:42:54.148Z,97135.75
2019-05-22T13:47:58.872Z,97135.23
2019-05-22T13:53:04.874Z,97131.16
2019-05-22T13:58:10.970Z,97108.89
2019-05-22T14:03:16.300Z,97117.66
2019-05-22T14:08:21.571Z,97117.30
2019-05-22T14:13:27.321Z,97106.48
2019-05-22T14:18:32.176Z,97106.80
2019-05-22T14:23:37.641Z,97095.36
2019-05-22T14:28:43.600Z,97099.13
2019-05-22T14:33:48.350Z,97084.41
2019-05-22T14:38:54.036Z,97080.52
2019-05-22T14:43:59.482Z,97074.48
2019-05-22T14:49:05.427Z,97071.41
2019-05-22T14:54:11.016Z,97067.17
2019-05-22T14:59:16.474Z,97069.61
2019-05-22T15:04:21.862Z,97056.10
2019-05-22T15:09:27.290Z,97048.34
2019-05-22T15:14:32.386Z,97049.28
2019-05-22T15:19:37.292Z,97045.13
2019-05-22T15:24:42.559Z,97042.73
2019-05-22T15:29:47.275Z,97042.71
2019-05-22T15:34:52.037Z,97037.05
2019-05-22T15:39:56.836Z,97036.12
2019-05-22T15:45:03.615Z,97039.06
2019-05-22T15:50:09.707Z,97040.13
2019-05-22T15:55:15.425Z,97035.16
2019-05-22T16:00:22.012Z,97035.66
2019-05-22T16:05:27.583Z,97046.11
2019-05-22T16:10:32.833Z,97040.33
2019-05-22T16:15:38.900Z,97039.17
2019-05-22T16:20:43.650Z,97038.92
2019-05-22T16:25:49.417Z,97035.05
2019-05-22T16:30:55.187Z,97032.25
2019-05-22T16:36:00.334Z,97035.95
2019-05-22T16:41:05.765Z,97025.30
2019-05-22T16:46:11.057Z,97027.84
2019-05-22T16:51:17.204Z,97036.75
2019-05-22T16:56:22.911Z,97043.56
2019-05-22T17:01:28.049Z,97041.36
2019-05-22T17:06:33.713Z,97053.98
2019-05-22T17:11:38.762Z,97061.00
2019-05-22T17:16:44.130Z,97078.34
2019-05-22T17:21:55.209Z,97085.72
2019-05-22T17:27:01.104Z,97097.32
2019-05-22T17:32:07.470Z,97110.26
2019-05-22T17:37:14.409Z,97107.11
2019-05-22T17:42:20.379Z,97113.78
2019-05-22T17:47:26.495Z,97133.14
2019-05-22T17:52:31.905Z,97163.19
2019-05-22T17:57:37.328Z,97201.78
2019-05-22T18:02:42.440Z,97267.23
2019-05-22T18:07:47.125Z,97267.23
2019-05-22T18:12:51.926Z,97300.39
2019-05-22T18:17:57.514Z,97231.87
2019-05-22T18:23:02.854Z,97198.22
2019-05-22T18:28:08.612Z,97194.89
2019-05-22T18:33:13.970Z,97234.93
2019-05-22T18:38:18.659Z,97226.08
2019-05-22T18:43:23.485Z,97259.37
2019-05-22T18:48:32.979Z,97279.34
2019-05-22T18:53:36.585Z,97290.66
2019-05-22T18:58:41.844Z,97267.41
2019-05-22T19:03:47.508Z,97292.88
2019-05-22T19:08:52.343Z,97320.04
2019-05-22T19:13:57.093Z,97300.11
2019-05-22T19:19:02.262Z,97309.55
2019-05-22T19:24:07.399Z,97319.63
2019-05-22T19:29:12.150Z,97318.45
2019-05-22T19:34:17.296Z,97335.43
2019-05-22T19:39:22.182Z,97344.19
2019-05-22T19:44:26.884Z,97359.65
2019-05-22T19:49:32.452Z,97355.66
2019-05-22T19:54:38.066Z,97349.38
2019-05-22T19:59:43.378Z,97340.20
2019-05-22T20:04:49.751Z,97317.87
2019-05-22T20:09:54.963Z,97299.47
2019-05-22T20:14:59.650Z,97293.19
2019-05-22T20:20:07.970Z,97292.98
2019-05-22T20:25:13.132Z,97291.05
2019-05-22T20:30:20.390Z,97287.71
2019-05-22T20:35:25.474Z,97295.22
2019-05-22T20:40:30.579Z,97297.20
2019-05-22T20:45:36.297Z,97289.48
2019-05-22T20:50:41.270Z,97294.69
2019-05-22T20:55:47.631Z,97296.65
2019-05-22T21:00:52.890Z,97299.65
2019-05-22T21:05:57.634Z,97301.69
2019-05-22T21:11:03.195Z,97299.17
2019-05-22T21:16:07.974Z,97296.99
2019-05-22T21:21:14.212Z,97294.92
2019-05-22T21:26:19.058Z,97291.35
2019-05-22T21:31:24.995Z,97288.09
2019-05-22T21:36:30.186Z,97287.76
2019-05-22T21:41:35.033Z,97288.45
2019-05-22T21:46:40.086Z,97288.32
2019-05-22T21:51:44.929Z,97285.31
2019-05-22T21:56:50.074Z,97297.66
2019-05-22T22:01:59.637Z,97299.52
2019-05-22T22:07:04.873Z,97303.47
2019-05-22T22:12:09.654Z,97306.81
2019-05-22T22:17:14.935Z,97313.16
2019-05-22T22:22:24.861Z,97324.02
2019-05-22T22:27:29.721Z,97330.02
2019-05-22T22:32:36.086Z,97335.59
2019-05-22T22:37:41.235Z,97341.65
2019-05-22T22:42:47.310Z,97342.78
2019-05-22T22:47:51.942Z,97342.94
2019-05-22T22:52:56.482Z,97339.97
2019-05-22T22:58:16.137Z,97341.21
2019-05-22T23:03:11.363Z,97341.47
2019-05-22T23:08:22.299Z,97341.87
2019-05-22T23:13:28.369Z,97343.22
2019-05-22T23:18:43.247Z,97334.75
2019-05-22T23:23:47.785Z,97330.67
2019-05-22T23:28:53.966Z,97338.94
2019-05-22T23:33:59.926Z,97340.01
2019-05-22T23:39:08.767Z,97319.52
2019-05-22T23:44:14.087Z,97318.44
2019-05-22T23:49:19.694Z,97317.14
2019-05-22T23:54:24.338Z,97311.33
2019-05-22T23:59:30.628Z,97295.03
